sensor_id;sensor_type;location;lat;lon;timestamp;P1;durP1;ratioP1;P2;durP2;ratioP2
59097;SDS011;44883;52.760;6.610;2022-12-11T00:00:25;36.13;;;11.30;;
59097;SDS011;44883;52.760;6.610;2022-12-11T00:02:50;30.88;;;11.88;;
59097;SDS011;44883;52.760;6.610;2022-12-11T00:05:16;37.42;;;11.98;;
59097;SDS011;44883;52.760;6.610;2022-12-11T00:07:42;45.85;;;14.38;;
59097;SDS011;44883;52.760;6.610;2022-12-11T00:10:07;36.30;;;10.27;;
59097;SDS011;44883;52.760;6.610;2022-12-11T00:12:33;30.85;;;10.90;;
59097;SDS011;44883;52.760;6.610;2022-12-11T00:14:59;35.45;;;12.15;;
59097;SDS011;44883;52.760;6.610;2022-12-11T00:17:24;44.35;;;12.15;;
59097;SDS011;44883;52.760;6.610;2022-12-11T00:19:50;37.35;;;10.93;;
59097;SDS011;44883;52.760;6.610;2022-12-11T00:22:15;24.65;;;7.35;;
59097;SDS011;44883;52.760;6.610;2022-12-11T00:24:41;41.25;;;12.55;;
59097;SDS011;44883;52.760;6.610;2022-12-11T00:27:07;35.72;;;11.88;;
59097;SDS011;44883;52.760;6.610;2022-12-11T00:29:32;38.97;;;12.15;;
59097;SDS011;44883;52.760;6.610;2022-12-11T00:31:58;48.00;;;13.95;;
59097;SDS011;44883;52.760;6.610;2022-12-11T00:34:24;27.70;;;8.95;;
59097;SDS011;44883;52.760;6.610;2022-12-11T00:36:49;38.75;;;11.18;;
59097;SDS011;44883;52.760;6.610;2022-12-11T00:39:15;38.40;;;12.65;;
59097;SDS011;44883;52.760;6.610;2022-12-11T00:41:40;28.08;;;10.23;;
59097;SDS011;44883;52.760;6.610;2022-12-11T00:44:06;24.95;;;8.98;;
59097;SDS011;44883;52.760;6.610;2022-12-11T00:46:32;18.58;;;8.15;;
59097;SDS011;44883;52.760;6.610;2022-12-11T00:48:57;30.95;;;11.25;;
59097;SDS011;44883;52.760;6.610;2022-12-11T00:51:23;35.35;;;10.73;;
59097;SDS011;44883;52.760;6.610;2022-12-11T00:53:50;33.65;;;11.30;;
59097;SDS011;44883;52.760;6.610;2022-12-11T00:56:19;41.50;;;12.32;;
59097;SDS011;44883;52.760;6.610;2022-12-11T00:58:46;36.97;;;12.82;;
59097;SDS011;44883;52.760;6.610;2022-12-11T01:01:14;27.98;;;11.07;;
59097;SDS011;44883;52.760;6.610;2022-12-11T01:03:42;36.55;;;11.68;;
59097;SDS011;44883;52.760;6.610;2022-12-11T01:06:11;31.45;;;11.23;;
59097;SDS011;44883;52.760;6.610;2022-12-11T01:08:39;30.35;;;11.25;;
59097;SDS011;44883;52.760;6.610;2022-12-11T01:11:06;34.28;;;11.13;;
59097;SDS011;44883;52.760;6.610;2022-12-11T01:13:34;40.33;;;12.60;;
59097;SDS011;44883;52.760;6.610;2022-12-11T01:16:04;36.60;;;12.18;;
59097;SDS011;44883;52.760;6.610;2022-12-11T01:18:31;38.70;;;12.10;;
59097;SDS011;44883;52.760;6.610;2022-12-11T01:20:56;30.75;;;9.85;;
59097;SDS011;44883;52.760;6.610;2022-12-11T01:23:22;32.05;;;11.18;;
59097;SDS011;44883;52.760;6.610;2022-12-11T01:25:48;30.02;;;10.73;;
59097;SDS011;44883;52.760;6.610;2022-12-11T01:28:13;34.15;;;10.82;;
59097;SDS011;44883;52.760;6.610;2022-12-11T01:30:40;30.23;;;10.32;;
59097;SDS011;44883;52.760;6.610;2022-12-11T01:33:06;27.73;;;8.95;;
59097;SDS011;44883;52.760;6.610;2022-12-11T01:35:32;33.53;;;10.43;;
59097;SDS011;44883;52.760;6.610;2022-12-11T01:37:58;27.88;;;9.65;;
59097;SDS011;44883;52.760;6.610;2022-12-11T01:40:23;35.90;;;11.43;;
59097;SDS011;44883;52.760;6.610;2022-12-11T01:42:49;34.83;;;11.50;;
59097;SDS011;44883;52.760;6.610;2022-12-11T01:47:54;35.17;;;11.18;;
59097;SDS011;44883;52.760;6.610;2022-12-11T01:50:24;35.20;;;10.27;;
59097;SDS011;44883;52.760;6.610;2022-12-11T01:52:50;27.48;;;9.93;;
59097;SDS011;44883;52.760;6.610;2022-12-11T01:55:16;43.33;;;12.45;;
59097;SDS011;44883;52.760;6.610;2022-12-11T01:57:43;34.22;;;10.15;;
59097;SDS011;44883;52.760;6.610;2022-12-11T02:00:11;36.53;;;11.52;;
59097;SDS011;44883;52.760;6.610;2022-12-11T02:02:37;32.17;;;11.55;;
59097;SDS011;44883;52.760;6.610;2022-12-11T02:05:04;37.85;;;12.27;;
59097;SDS011;44883;52.760;6.610;2022-12-11T02:07:32;35.83;;;12.02;;
59097;SDS011;44883;52.760;6.610;2022-12-11T02:10:02;34.05;;;11.60;;
59097;SDS011;44883;52.760;6.610;2022-12-11T02:12:40;30.23;;;11.05;;
59097;SDS011;44883;52.760;6.610;2022-12-11T02:15:11;35.47;;;11.48;;
59097;SDS011;44883;52.760;6.610;2022-12-11T02:28:54;40.17;;;13.25;;
59097;SDS011;44883;52.760;6.610;2022-12-11T02:31:36;33.33;;;10.95;;
59097;SDS011;44883;52.760;6.610;2022-12-11T02:36:56;33.55;;;10.20;;
59097;SDS011;44883;52.760;6.610;2022-12-11T02:39:25;37.45;;;12.02;;
59097;SDS011;44883;52.760;6.610;2022-12-11T02:41:52;32.20;;;10.70;;
59097;SDS011;44883;52.760;6.610;2022-12-11T02:44:20;36.80;;;12.57;;
59097;SDS011;44883;52.760;6.610;2022-12-11T02:46:52;32.55;;;11.02;;
59097;SDS011;44883;52.760;6.610;2022-12-11T02:49:19;32.65;;;10.68;;
59097;SDS011;44883;52.760;6.610;2022-12-11T02:51:47;38.85;;;12.02;;
59097;SDS011;44883;52.760;6.610;2022-12-11T02:54:20;37.30;;;13.00;;
59097;SDS011;44883;52.760;6.610;2022-12-11T02:56:53;44.40;;;14.77;;
59097;SDS011;44883;52.760;6.610;2022-12-11T02:59:35;45.40;;;13.50;;
59097;SDS011;44883;52.760;6.610;2022-12-11T03:02:03;39.58;;;12.90;;
59097;SDS011;44883;52.760;6.610;2022-12-11T03:04:28;39.97;;;11.15;;
59097;SDS011;44883;52.760;6.610;2022-12-11T03:06:55;43.70;;;13.57;;
59097;SDS011;44883;52.760;6.610;2022-12-11T03:09:36;41.25;;;12.77;;
59097;SDS011;44883;52.760;6.610;2022-12-11T03:12:03;38.85;;;11.70;;
59097;SDS011;44883;52.760;6.610;2022-12-11T03:14:30;40.83;;;14.02;;
59097;SDS011;44883;52.760;6.610;2022-12-11T03:16:59;43.15;;;13.73;;
59097;SDS011;44883;52.760;6.610;2022-12-11T03:19:44;37.53;;;12.73;;
59097;SDS011;44883;52.760;6.610;2022-12-11T03:22:18;33.20;;;10.35;;
59097;SDS011;44883;52.760;6.610;2022-12-11T03:25:06;46.58;;;12.85;;
59097;SDS011;44883;52.760;6.610;2022-12-11T03:27:44;41.38;;;13.43;;
59097;SDS011;44883;52.760;6.610;2022-12-11T03:30:21;41.20;;;12.07;;
59097;SDS011;44883;52.760;6.610;2022-12-11T03:32:54;45.58;;;13.38;;
59097;SDS011;44883;52.760;6.610;2022-12-11T03:35:28;40.47;;;12.65;;
59097;SDS011;44883;52.760;6.610;2022-12-11T03:38:05;38.65;;;12.70;;
59097;SDS011;44883;52.760;6.610;2022-12-11T03:40:35;42.10;;;13.75;;
59097;SDS011;44883;52.760;6.610;2022-12-11T03:43:04;35.97;;;9.80;;
59097;SDS011;44883;52.760;6.610;2022-12-11T03:45:31;44.10;;;13.43;;
59097;SDS011;44883;52.760;6.610;2022-12-11T03:47:58;40.63;;;12.63;;
59097;SDS011;44883;52.760;6.610;2022-12-11T03:50:27;34.00;;;11.65;;
59097;SDS011;44883;52.760;6.610;2022-12-11T03:52:55;47.47;;;13.48;;
59097;SDS011;44883;52.760;6.610;2022-12-11T03:55:21;41.03;;;12.27;;
59097;SDS011;44883;52.760;6.610;2022-12-11T03:57:48;35.60;;;12.32;;
59097;SDS011;44883;52.760;6.610;2022-12-11T04:00:15;32.10;;;10.93;;
59097;SDS011;44883;52.760;6.610;2022-12-11T04:02:42;41.95;;;11.68;;
59097;SDS011;44883;52.760;6.610;2022-12-11T04:05:08;45.45;;;13.35;;
59097;SDS011;44883;52.760;6.610;2022-12-11T04:07:35;44.33;;;13.55;;
59097;SDS011;44883;52.760;6.610;2022-12-11T04:10:01;46.20;;;12.77;;
59097;SDS011;44883;52.760;6.610;2022-12-11T04:12:28;45.15;;;13.15;;
59097;SDS011;44883;52.760;6.610;2022-12-11T04:14:53;35.20;;;11.13;;
59097;SDS011;44883;52.760;6.610;2022-12-11T04:17:32;38.30;;;12.43;;
59097;SDS011;44883;52.760;6.610;2022-12-11T04:20:18;31.70;;;10.07;;
59097;SDS011;44883;52.760;6.610;2022-12-11T04:23:03;33.08;;;11.27;;
59097;SDS011;44883;52.760;6.610;2022-12-11T04:25:48;42.90;;;13.02;;
59097;SDS011;44883;52.760;6.610;2022-12-11T04:28:14;40.80;;;11.27;;
59097;SDS011;44883;52.760;6.610;2022-12-11T04:30:40;41.42;;;12.02;;
59097;SDS011;44883;52.760;6.610;2022-12-11T04:35:36;33.70;;;11.75;;
59097;SDS011;44883;52.760;6.610;2022-12-11T04:38:02;34.15;;;10.98;;
59097;SDS011;44883;52.760;6.610;2022-12-11T04:40:28;32.35;;;10.73;;
59097;SDS011;44883;52.760;6.610;2022-12-11T04:42:53;38.33;;;12.02;;
59097;SDS011;44883;52.760;6.610;2022-12-11T04:45:19;39.60;;;13.00;;
59097;SDS011;44883;52.760;6.610;2022-12-11T04:47:45;30.75;;;10.50;;
59097;SDS011;44883;52.760;6.610;2022-12-11T04:50:12;42.05;;;12.45;;
59097;SDS011;44883;52.760;6.610;2022-12-11T04:52:38;32.67;;;10.75;;
59097;SDS011;44883;52.760;6.610;2022-12-11T04:55:05;37.63;;;12.00;;
59097;SDS011;44883;52.760;6.610;2022-12-11T04:57:31;29.73;;;9.80;;
59097;SDS011;44883;52.760;6.610;2022-12-11T04:59:57;30.38;;;10.05;;
59097;SDS011;44883;52.760;6.610;2022-12-11T05:02:24;31.67;;;10.70;;
59097;SDS011;44883;52.760;6.610;2022-12-11T05:04:50;40.30;;;12.90;;
59097;SDS011;44883;52.760;6.610;2022-12-11T05:07:16;36.00;;;11.52;;
59097;SDS011;44883;52.760;6.610;2022-12-11T05:09:42;36.38;;;11.13;;
59097;SDS011;44883;52.760;6.610;2022-12-11T05:12:07;37.22;;;11.88;;
59097;SDS011;44883;52.760;6.610;2022-12-11T05:14:33;31.92;;;10.77;;
59097;SDS011;44883;52.760;6.610;2022-12-11T05:16:59;37.20;;;12.30;;
59097;SDS011;44883;52.760;6.610;2022-12-11T05:19:25;43.25;;;12.48;;
59097;SDS011;44883;52.760;6.610;2022-12-11T05:21:51;32.00;;;11.60;;
59097;SDS011;44883;52.760;6.610;2022-12-11T05:24:17;35.00;;;12.10;;
59097;SDS011;44883;52.760;6.610;2022-12-11T05:26:42;37.38;;;11.43;;
59097;SDS011;44883;52.760;6.610;2022-12-11T05:29:08;24.65;;;10.38;;
59097;SDS011;44883;52.760;6.610;2022-12-11T05:31:33;41.92;;;12.20;;
59097;SDS011;44883;52.760;6.610;2022-12-11T05:33:59;35.05;;;10.38;;
59097;SDS011;44883;52.760;6.610;2022-12-11T05:36:29;30.38;;;10.27;;
59097;SDS011;44883;52.760;6.610;2022-12-11T05:38:56;26.70;;;9.38;;
59097;SDS011;44883;52.760;6.610;2022-12-11T05:41:25;26.75;;;7.90;;
59097;SDS011;44883;52.760;6.610;2022-12-11T05:46:29;35.92;;;10.02;;
59097;SDS011;44883;52.760;6.610;2022-12-11T05:48:56;41.08;;;11.75;;
59097;SDS011;44883;52.760;6.610;2022-12-11T05:51:24;29.85;;;9.45;;
59097;SDS011;44883;52.760;6.610;2022-12-11T05:53:50;13.55;;;6.10;;
59097;SDS011;44883;52.760;6.610;2022-12-11T05:56:17;33.97;;;10.30;;
59097;SDS011;44883;52.760;6.610;2022-12-11T05:58:45;24.27;;;8.00;;
59097;SDS011;44883;52.760;6.610;2022-12-11T06:01:22;28.83;;;8.32;;
59097;SDS011;44883;52.760;6.610;2022-12-11T06:03:54;33.83;;;11.13;;
59097;SDS011;44883;52.760;6.610;2022-12-11T06:06:20;40.70;;;12.45;;
59097;SDS011;44883;52.760;6.610;2022-12-11T06:08:53;27.88;;;8.27;;
59097;SDS011;44883;52.760;6.610;2022-12-11T06:11:20;38.15;;;12.68;;
59097;SDS011;44883;52.760;6.610;2022-12-11T06:13:47;29.08;;;8.88;;
59097;SDS011;44883;52.760;6.610;2022-12-11T06:16:13;40.70;;;12.77;;
59097;SDS011;44883;52.760;6.610;2022-12-11T06:18:40;27.92;;;9.70;;
59097;SDS011;44883;52.760;6.610;2022-12-11T06:21:17;28.38;;;9.50;;
59097;SDS011;44883;52.760;6.610;2022-12-11T06:23:45;23.92;;;9.30;;
59097;SDS011;44883;52.760;6.610;2022-12-11T06:26:13;20.25;;;6.32;;
59097;SDS011;44883;52.760;6.610;2022-12-11T06:28:39;23.65;;;7.95;;
59097;SDS011;44883;52.760;6.610;2022-12-11T06:31:05;16.13;;;6.30;;
59097;SDS011;44883;52.760;6.610;2022-12-11T06:33:31;21.60;;;8.55;;
59097;SDS011;44883;52.760;6.610;2022-12-11T06:36:17;25.02;;;7.78;;
59097;SDS011;44883;52.760;6.610;2022-12-11T06:38:44;32.60;;;9.27;;
59097;SDS011;44883;52.760;6.610;2022-12-11T06:41:10;31.25;;;10.75;;
59097;SDS011;44883;52.760;6.610;2022-12-11T06:43:37;35.35;;;10.52;;
59097;SDS011;44883;52.760;6.610;2022-12-11T06:46:04;25.35;;;9.05;;
59097;SDS011;44883;52.760;6.610;2022-12-11T06:48:34;29.58;;;12.25;;
59097;SDS011;44883;52.760;6.610;2022-12-11T06:51:06;37.63;;;11.95;;
59097;SDS011;44883;52.760;6.610;2022-12-11T06:53:33;31.13;;;9.93;;
59097;SDS011;44883;52.760;6.610;2022-12-11T06:56:03;32.72;;;10.52;;
59097;SDS011;44883;52.760;6.610;2022-12-11T06:58:32;35.28;;;10.70;;
59097;SDS011;44883;52.760;6.610;2022-12-11T07:00:58;25.17;;;7.63;;
59097;SDS011;44883;52.760;6.610;2022-12-11T07:03:24;29.40;;;10.32;;
59097;SDS011;44883;52.760;6.610;2022-12-11T07:05:49;31.67;;;10.30;;
59097;SDS011;44883;52.760;6.610;2022-12-11T07:08:15;24.88;;;8.38;;
59097;SDS011;44883;52.760;6.610;2022-12-11T07:10:40;36.40;;;9.93;;
59097;SDS011;44883;52.760;6.610;2022-12-11T07:13:06;28.80;;;9.75;;
59097;SDS011;44883;52.760;6.610;2022-12-11T07:15:32;23.60;;;7.57;;
59097;SDS011;44883;52.760;6.610;2022-12-11T07:17:57;27.27;;;8.32;;
59097;SDS011;44883;52.760;6.610;2022-12-11T07:20:23;35.35;;;10.93;;
59097;SDS011;44883;52.760;6.610;2022-12-11T07:22:49;32.60;;;11.40;;
59097;SDS011;44883;52.760;6.610;2022-12-11T07:25:14;39.47;;;13.50;;
59097;SDS011;44883;52.760;6.610;2022-12-11T07:27:40;34.00;;;9.32;;
59097;SDS011;44883;52.760;6.610;2022-12-11T07:30:06;31.63;;;9.32;;
59097;SDS011;44883;52.760;6.610;2022-12-11T07:32:32;27.67;;;8.77;;
59097;SDS011;44883;52.760;6.610;2022-12-11T07:34:58;29.75;;;9.30;;
59097;SDS011;44883;52.760;6.610;2022-12-11T07:37:23;38.97;;;11.98;;
59097;SDS011;44883;52.760;6.610;2022-12-11T07:39:49;38.50;;;12.65;;
59097;SDS011;44883;52.760;6.610;2022-12-11T07:42:15;35.25;;;11.63;;
59097;SDS011;44883;52.760;6.610;2022-12-11T07:44:40;28.75;;;10.25;;
59097;SDS011;44883;52.760;6.610;2022-12-11T07:47:06;35.85;;;11.18;;
59097;SDS011;44883;52.760;6.610;2022-12-11T07:49:31;36.80;;;11.90;;
59097;SDS011;44883;52.760;6.610;2022-12-11T07:51:57;40.33;;;12.82;;
59097;SDS011;44883;52.760;6.610;2022-12-11T07:54:23;35.83;;;11.63;;
59097;SDS011;44883;52.760;6.610;2022-12-11T07:56:48;39.80;;;11.18;;
59097;SDS011;44883;52.760;6.610;2022-12-11T07:59:14;35.97;;;11.38;;
59097;SDS011;44883;52.760;6.610;2022-12-11T08:01:40;36.05;;;12.13;;
59097;SDS011;44883;52.760;6.610;2022-12-11T08:04:07;31.13;;;10.00;;
59097;SDS011;44883;52.760;6.610;2022-12-11T08:06:35;34.00;;;10.32;;
59097;SDS011;44883;52.760;6.610;2022-12-11T08:09:03;35.53;;;11.88;;
59097;SDS011;44883;52.760;6.610;2022-12-11T08:11:31;32.45;;;12.27;;
59097;SDS011;44883;52.760;6.610;2022-12-11T08:13:57;38.47;;;13.30;;
59097;SDS011;44883;52.760;6.610;2022-12-11T08:16:26;37.47;;;12.95;;
59097;SDS011;44883;52.760;6.610;2022-12-11T08:18:53;36.65;;;12.55;;
59097;SDS011;44883;52.760;6.610;2022-12-11T08:21:22;36.30;;;12.40;;
59097;SDS011;44883;52.760;6.610;2022-12-11T08:23:50;31.75;;;10.32;;
59097;SDS011;44883;52.760;6.610;2022-12-11T08:26:17;25.77;;;9.18;;
59097;SDS011;44883;52.760;6.610;2022-12-11T08:28:50;34.97;;;10.40;;
59097;SDS011;44883;52.760;6.610;2022-12-11T08:31:17;35.60;;;12.82;;
59097;SDS011;44883;52.760;6.610;2022-12-11T08:33:43;39.25;;;12.40;;
59097;SDS011;44883;52.760;6.610;2022-12-11T08:36:10;43.80;;;13.07;;
59097;SDS011;44883;52.760;6.610;2022-12-11T08:38:40;35.50;;;11.25;;
59097;SDS011;44883;52.760;6.610;2022-12-11T08:41:13;29.95;;;10.77;;
59097;SDS011;44883;52.760;6.610;2022-12-11T08:43:40;40.47;;;12.43;;
59097;SDS011;44883;52.760;6.610;2022-12-11T08:46:06;34.38;;;12.68;;
59097;SDS011;44883;52.760;6.610;2022-12-11T08:48:33;37.50;;;10.70;;
59097;SDS011;44883;52.760;6.610;2022-12-11T08:51:03;31.48;;;9.65;;
59097;SDS011;44883;52.760;6.610;2022-12-11T08:53:31;31.95;;;11.05;;
59097;SDS011;44883;52.760;6.610;2022-12-11T08:56:00;38.70;;;11.07;;
59097;SDS011;44883;52.760;6.610;2022-12-11T08:58:29;35.10;;;10.07;;
59097;SDS011;44883;52.760;6.610;2022-12-11T09:00:55;33.33;;;10.30;;
59097;SDS011;44883;52.760;6.610;2022-12-11T09:03:20;35.65;;;12.02;;
59097;SDS011;44883;52.760;6.610;2022-12-11T09:05:46;31.38;;;10.65;;
59097;SDS011;44883;52.760;6.610;2022-12-11T09:08:12;25.13;;;8.75;;
59097;SDS011;44883;52.760;6.610;2022-12-11T09:10:37;39.40;;;11.55;;
59097;SDS011;44883;52.760;6.610;2022-12-11T09:13:03;35.83;;;11.75;;
59097;SDS011;44883;52.760;6.610;2022-12-11T09:15:28;27.77;;;9.57;;
59097;SDS011;44883;52.760;6.610;2022-12-11T09:17:54;37.72;;;12.75;;
59097;SDS011;44883;52.760;6.610;2022-12-11T09:20:20;32.58;;;10.98;;
59097;SDS011;44883;52.760;6.610;2022-12-11T09:22:45;38.28;;;10.30;;
59097;SDS011;44883;52.760;6.610;2022-12-11T09:25:11;31.42;;;10.52;;
59097;SDS011;44883;52.760;6.610;2022-12-11T09:27:36;32.80;;;11.52;;
59097;SDS011;44883;52.760;6.610;2022-12-11T09:30:02;31.80;;;10.65;;
59097;SDS011;44883;52.760;6.610;2022-12-11T09:32:28;29.48;;;10.48;;
59097;SDS011;44883;52.760;6.610;2022-12-11T09:34:54;31.77;;;9.88;;
59097;SDS011;44883;52.760;6.610;2022-12-11T09:37:20;33.45;;;10.77;;
59097;SDS011;44883;52.760;6.610;2022-12-11T09:39:45;33.88;;;11.52;;
59097;SDS011;44883;52.760;6.610;2022-12-11T09:42:25;34.92;;;12.05;;
59097;SDS011;44883;52.760;6.610;2022-12-11T09:45:11;33.53;;;10.55;;
59097;SDS011;44883;52.760;6.610;2022-12-11T09:47:40;36.47;;;11.00;;
59097;SDS011;44883;52.760;6.610;2022-12-11T09:52:35;29.30;;;10.07;;
59097;SDS011;44883;52.760;6.610;2022-12-11T09:55:14;32.33;;;10.23;;
59097;SDS011;44883;52.760;6.610;2022-12-11T09:58:05;22.50;;;8.35;;
59097;SDS011;44883;52.760;6.610;2022-12-11T10:00:39;25.88;;;10.13;;
59097;SDS011;44883;52.760;6.610;2022-12-11T10:03:21;33.03;;;10.18;;
59097;SDS011;44883;52.760;6.610;2022-12-11T10:08:43;30.13;;;9.57;;
59097;SDS011;44883;52.760;6.610;2022-12-11T10:17:01;32.42;;;10.07;;
59097;SDS011;44883;52.760;6.610;2022-12-11T10:19:35;21.20;;;7.20;;
59097;SDS011;44883;52.760;6.610;2022-12-11T10:22:01;35.28;;;10.20;;
59097;SDS011;44883;52.760;6.610;2022-12-11T10:27:51;27.77;;;10.50;;
59097;SDS011;44883;52.760;6.610;2022-12-11T10:32:59;35.80;;;11.15;;
59097;SDS011;44883;52.760;6.610;2022-12-11T10:35:42;32.30;;;10.45;;
59097;SDS011;44883;52.760;6.610;2022-12-11T10:38:13;26.65;;;9.38;;
59097;SDS011;44883;52.760;6.610;2022-12-11T10:40:45;39.75;;;10.48;;
59097;SDS011;44883;52.760;6.610;2022-12-11T10:43:13;26.13;;;9.75;;
59097;SDS011;44883;52.760;6.610;2022-12-11T10:45:48;23.85;;;7.97;;
59097;SDS011;44883;52.760;6.610;2022-12-11T10:48:18;27.25;;;9.23;;
59097;SDS011;44883;52.760;6.610;2022-12-11T10:50:44;35.17;;;12.77;;
59097;SDS011;44883;52.760;6.610;2022-12-11T10:53:21;32.95;;;10.40;;
59097;SDS011;44883;52.760;6.610;2022-12-11T10:55:48;35.45;;;11.35;;
59097;SDS011;44883;52.760;6.610;2022-12-11T10:58:18;28.40;;;9.82;;
59097;SDS011;44883;52.760;6.610;2022-12-11T11:00:48;37.47;;;12.00;;
59097;SDS011;44883;52.760;6.610;2022-12-11T11:03:26;35.05;;;10.13;;
59097;SDS011;44883;52.760;6.610;2022-12-11T11:08:40;34.90;;;10.88;;
59097;SDS011;44883;52.760;6.610;2022-12-11T11:11:29;34.63;;;10.70;;
59097;SDS011;44883;52.760;6.610;2022-12-11T11:16:40;35.78;;;12.07;;
59097;SDS011;44883;52.760;6.610;2022-12-11T11:19:13;37.53;;;12.57;;
59097;SDS011;44883;52.760;6.610;2022-12-11T11:21:45;34.03;;;10.82;;
59097;SDS011;44883;52.760;6.610;2022-12-11T11:24:25;39.58;;;13.25;;
59097;SDS011;44883;52.760;6.610;2022-12-11T11:26:55;33.22;;;10.90;;
59097;SDS011;44883;52.760;6.610;2022-12-11T11:29:23;43.53;;;21.52;;
59097;SDS011;44883;52.760;6.610;2022-12-11T11:31:54;40.20;;;17.63;;
59097;SDS011;44883;52.760;6.610;2022-12-11T11:34:37;69.97;;;40.28;;
59097;SDS011;44883;52.760;6.610;2022-12-11T11:37:03;61.38;;;32.08;;
59097;SDS011;44883;52.760;6.610;2022-12-11T11:39:34;76.70;;;44.00;;
59097;SDS011;44883;52.760;6.610;2022-12-11T11:50:43;68.95;;;44.13;;
59097;SDS011;44883;52.760;6.610;2022-12-11T11:53:16;79.68;;;56.25;;
59097;SDS011;44883;52.760;6.610;2022-12-11T11:56:06;63.45;;;41.95;;
59097;SDS011;44883;52.760;6.610;2022-12-11T12:01:27;60.55;;;33.53;;
59097;SDS011;44883;52.760;6.610;2022-12-11T12:03:53;76.70;;;51.25;;
59097;SDS011;44883;52.760;6.610;2022-12-11T12:14:19;49.78;;;18.85;;
59097;SDS011;44883;52.760;6.610;2022-12-11T12:22:13;41.42;;;20.15;;
59097;SDS011;44883;52.760;6.610;2022-12-11T12:25:04;38.20;;;15.60;;
59097;SDS011;44883;52.760;6.610;2022-12-11T12:27:50;56.15;;;27.77;;
59097;SDS011;44883;52.760;6.610;2022-12-11T12:33:15;43.67;;;19.48;;
59097;SDS011;44883;52.760;6.610;2022-12-11T12:36:02;39.80;;;17.00;;
59097;SDS011;44883;52.760;6.610;2022-12-11T12:38:43;38.47;;;14.60;;
59097;SDS011;44883;52.760;6.610;2022-12-11T12:49:18;39.10;;;16.30;;
59097;SDS011;44883;52.760;6.610;2022-12-11T12:52:04;36.08;;;14.18;;
59097;SDS011;44883;52.760;6.610;2022-12-11T12:54:35;39.45;;;12.77;;
59097;SDS011;44883;52.760;6.610;2022-12-11T12:57:02;26.38;;;10.95;;
59097;SDS011;44883;52.760;6.610;2022-12-11T12:59:29;35.75;;;13.05;;
59097;SDS011;44883;52.760;6.610;2022-12-11T13:01:55;36.88;;;13.02;;
59097;SDS011;44883;52.760;6.610;2022-12-11T13:04:36;37.42;;;14.82;;
59097;SDS011;44883;52.760;6.610;2022-12-11T13:10:00;35.70;;;13.93;;
59097;SDS011;44883;52.760;6.610;2022-12-11T13:12:50;32.60;;;14.23;;
59097;SDS011;44883;52.760;6.610;2022-12-11T13:17:56;38.55;;;15.98;;
59097;SDS011;44883;52.760;6.610;2022-12-11T13:20:24;119.72;;;66.95;;
59097;SDS011;44883;52.760;6.610;2022-12-11T13:23:06;50.40;;;29.13;;
59097;SDS011;44883;52.760;6.610;2022-12-11T13:31:00;30.80;;;13.27;;
59097;SDS011;44883;52.760;6.610;2022-12-11T13:33:28;31.92;;;12.00;;
59097;SDS011;44883;52.760;6.610;2022-12-11T13:36:16;26.95;;;9.50;;
59097;SDS011;44883;52.760;6.610;2022-12-11T13:38:50;28.85;;;10.23;;
59097;SDS011;44883;52.760;6.610;2022-12-11T13:41:18;27.65;;;9.65;;
59097;SDS011;44883;52.760;6.610;2022-12-11T13:43:45;27.75;;;11.55;;
59097;SDS011;44883;52.760;6.610;2022-12-11T13:46:13;29.00;;;13.27;;
59097;SDS011;44883;52.760;6.610;2022-12-11T13:48:47;28.15;;;10.80;;
59097;SDS011;44883;52.760;6.610;2022-12-11T13:51:16;27.02;;;10.32;;
59097;SDS011;44883;52.760;6.610;2022-12-11T13:53:47;26.02;;;11.82;;
59097;SDS011;44883;52.760;6.610;2022-12-11T13:56:20;26.42;;;11.38;;
59097;SDS011;44883;52.760;6.610;2022-12-11T13:58:46;26.83;;;10.15;;
59097;SDS011;44883;52.760;6.610;2022-12-11T14:01:14;26.92;;;10.65;;
59097;SDS011;44883;52.760;6.610;2022-12-11T14:06:16;25.70;;;9.63;;
59097;SDS011;44883;52.760;6.610;2022-12-11T14:08:43;23.92;;;9.57;;
59097;SDS011;44883;52.760;6.610;2022-12-11T14:11:14;21.85;;;9.20;;
59097;SDS011;44883;52.760;6.610;2022-12-11T14:13:46;30.33;;;11.32;;
59097;SDS011;44883;52.760;6.610;2022-12-11T14:16:13;28.88;;;11.70;;
59097;SDS011;44883;52.760;6.610;2022-12-11T14:18:46;27.88;;;10.98;;
59097;SDS011;44883;52.760;6.610;2022-12-11T14:21:18;27.98;;;12.32;;
59097;SDS011;44883;52.760;6.610;2022-12-11T14:23:50;23.88;;;10.15;;
59097;SDS011;44883;52.760;6.610;2022-12-11T14:26:22;23.08;;;9.43;;
59097;SDS011;44883;52.760;6.610;2022-12-11T14:28:49;24.15;;;8.75;;
59097;SDS011;44883;52.760;6.610;2022-12-11T14:31:17;26.77;;;10.05;;
59097;SDS011;44883;52.760;6.610;2022-12-11T14:33:59;27.80;;;10.52;;
59097;SDS011;44883;52.760;6.610;2022-12-11T14:36:28;30.35;;;11.77;;
59097;SDS011;44883;52.760;6.610;2022-12-11T14:39:03;28.63;;;10.90;;
59097;SDS011;44883;52.760;6.610;2022-12-11T14:41:52;18.50;;;8.07;;
59097;SDS011;44883;52.760;6.610;2022-12-11T14:44:31;28.85;;;13.90;;
59097;SDS011;44883;52.760;6.610;2022-12-11T14:47:02;28.45;;;13.00;;
59097;SDS011;44883;52.760;6.610;2022-12-11T14:52:12;59.78;;;32.33;;
59097;SDS011;44883;52.760;6.610;2022-12-11T14:54:42;30.92;;;15.10;;
59097;SDS011;44883;52.760;6.610;2022-12-11T14:57:20;46.70;;;27.27;;
59097;SDS011;44883;52.760;6.610;2022-12-11T14:59:49;22.10;;;9.73;;
59097;SDS011;44883;52.760;6.610;2022-12-11T15:02:28;37.38;;;21.40;;
59097;SDS011;44883;52.760;6.610;2022-12-11T15:05:09;28.27;;;10.80;;
59097;SDS011;44883;52.760;6.610;2022-12-11T15:07:38;23.83;;;10.93;;
59097;SDS011;44883;52.760;6.610;2022-12-11T15:10:06;22.13;;;10.35;;
59097;SDS011;44883;52.760;6.610;2022-12-11T15:12:49;26.52;;;10.88;;
59097;SDS011;44883;52.760;6.610;2022-12-11T15:15:15;20.60;;;9.57;;
59097;SDS011;44883;52.760;6.610;2022-12-11T15:17:42;20.08;;;8.00;;
59097;SDS011;44883;52.760;6.610;2022-12-11T15:20:08;19.10;;;7.43;;
59097;SDS011;44883;52.760;6.610;2022-12-11T15:22:44;31.42;;;14.98;;
59097;SDS011;44883;52.760;6.610;2022-12-11T15:25:23;22.05;;;8.73;;
59097;SDS011;44883;52.760;6.610;2022-12-11T15:27:52;41.42;;;21.88;;
59097;SDS011;44883;52.760;6.610;2022-12-11T15:35:37;9.60;;;4.38;;
59097;SDS011;44883;52.760;6.610;2022-12-11T15:38:04;10.60;;;5.32;;
59097;SDS011;44883;52.760;6.610;2022-12-11T15:40:30;10.90;;;5.03;;
59097;SDS011;44883;52.760;6.610;2022-12-11T15:42:56;21.98;;;10.73;;
59097;SDS011;44883;52.760;6.610;2022-12-11T15:45:26;19.67;;;8.98;;
59097;SDS011;44883;52.760;6.610;2022-12-11T15:47:54;13.70;;;6.03;;
59097;SDS011;44883;52.760;6.610;2022-12-11T15:50:25;26.70;;;13.35;;
59097;SDS011;44883;52.760;6.610;2022-12-11T15:52:53;25.20;;;13.07;;
59097;SDS011;44883;52.760;6.610;2022-12-11T15:55:20;20.05;;;10.70;;
59097;SDS011;44883;52.760;6.610;2022-12-11T15:58:12;27.27;;;13.35;;
59097;SDS011;44883;52.760;6.610;2022-12-11T16:00:37;22.77;;;9.75;;
59097;SDS011;44883;52.760;6.610;2022-12-11T16:03:03;20.80;;;8.95;;
59097;SDS011;44883;52.760;6.610;2022-12-11T16:05:28;17.85;;;7.90;;
59097;SDS011;44883;52.760;6.610;2022-12-11T16:07:54;20.45;;;8.60;;
59097;SDS011;44883;52.760;6.610;2022-12-11T16:10:23;18.80;;;9.32;;
59097;SDS011;44883;52.760;6.610;2022-12-11T16:12:49;45.83;;;36.50;;
59097;SDS011;44883;52.760;6.610;2022-12-11T16:15:15;22.70;;;11.95;;
59097;SDS011;44883;52.760;6.610;2022-12-11T16:17:41;31.58;;;16.58;;